sensor_id;sensor_type;location;lat;lon;timestamp;P1;durP1;ratioP1;P2;durP2;ratioP2
60292;SDS011;52402;52.670;6.750;2023-08-31T00:00:09;1.38;;;1.27;;
60292;SDS011;52402;52.670;6.750;2023-08-31T00:02:35;1.55;;;1.45;;
60292;SDS011;52402;52.670;6.750;2023-08-31T00:05:01;1.15;;;1.15;;
60292;SDS011;52402;52.670;6.750;2023-08-31T00:07:32;1.38;;;1.27;;
60292;SDS011;52402;52.670;6.750;2023-08-31T00:09:58;1.58;;;1.48;;
60292;SDS011;52402;52.670;6.750;2023-08-31T00:12:24;1.10;;;1.10;;
60292;SDS011;52402;52.670;6.750;2023-08-31T00:14:50;1.20;;;1.20;;
60292;SDS011;52402;52.670;6.750;2023-08-31T00:17:15;1.23;;;1.20;;
60292;SDS011;52402;52.670;6.750;2023-08-31T00:19:42;1.35;;;1.25;;
60292;SDS011;52402;52.670;6.750;2023-08-31T00:22:09;1.20;;;1.20;;
60292;SDS011;52402;52.670;6.750;2023-08-31T00:24:34;1.35;;;1.25;;
60292;SDS011;52402;52.670;6.750;2023-08-31T00:27:02;1.10;;;1.10;;
60292;SDS011;52402;52.670;6.750;2023-08-31T00:29:29;1.40;;;1.30;;
60292;SDS011;52402;52.670;6.750;2023-08-31T00:31:55;1.15;;;1.15;;
60292;SDS011;52402;52.670;6.750;2023-08-31T00:34:21;1.20;;;1.20;;
60292;SDS011;52402;52.670;6.750;2023-08-31T00:36:47;1.50;;;1.40;;
60292;SDS011;52402;52.670;6.750;2023-08-31T00:39:14;1.27;;;1.20;;
60292;SDS011;52402;52.670;6.750;2023-08-31T00:41:40;1.25;;;1.20;;
60292;SDS011;52402;52.670;6.750;2023-08-31T00:44:06;1.00;;;1.00;;
60292;SDS011;52402;52.670;6.750;2023-08-31T00:46:35;1.10;;;1.10;;
60292;SDS011;52402;52.670;6.750;2023-08-31T00:49:01;0.90;;;0.90;;
60292;SDS011;52402;52.670;6.750;2023-08-31T00:51:29;1.27;;;1.23;;
60292;SDS011;52402;52.670;6.750;2023-08-31T00:53:55;1.25;;;1.20;;
60292;SDS011;52402;52.670;6.750;2023-08-31T00:56:24;1.00;;;1.00;;
60292;SDS011;52402;52.670;6.750;2023-08-31T00:58:50;1.02;;;1.02;;
60292;SDS011;52402;52.670;6.750;2023-08-31T01:03:53;1.40;;;1.30;;
60292;SDS011;52402;52.670;6.750;2023-08-31T01:08:52;1.50;;;1.40;;
60292;SDS011;52402;52.670;6.750;2023-08-31T01:14:16;1.10;;;1.10;;
60292;SDS011;52402;52.670;6.750;2023-08-31T01:16:45;1.10;;;1.10;;
60292;SDS011;52402;52.670;6.750;2023-08-31T01:21:52;1.20;;;1.20;;
60292;SDS011;52402;52.670;6.750;2023-08-31T01:24:22;1.20;;;1.20;;
60292;SDS011;52402;52.670;6.750;2023-08-31T01:26:49;1.10;;;1.10;;
60292;SDS011;52402;52.670;6.750;2023-08-31T01:29:17;1.42;;;1.33;;
60292;SDS011;52402;52.670;6.750;2023-08-31T01:31:44;1.00;;;1.00;;
60292;SDS011;52402;52.670;6.750;2023-08-31T01:34:12;1.10;;;1.10;;
60292;SDS011;52402;52.670;6.750;2023-08-31T01:36:39;1.00;;;1.00;;
60292;SDS011;52402;52.670;6.750;2023-08-31T01:39:11;1.40;;;1.30;;
60292;SDS011;52402;52.670;6.750;2023-08-31T01:41:44;1.40;;;1.30;;
60292;SDS011;52402;52.670;6.750;2023-08-31T01:44:25;1.05;;;1.05;;
60292;SDS011;52402;52.670;6.750;2023-08-31T01:46:53;1.05;;;1.05;;
60292;SDS011;52402;52.670;6.750;2023-08-31T01:49:19;1.13;;;1.13;;
60292;SDS011;52402;52.670;6.750;2023-08-31T01:51:48;1.15;;;1.15;;
60292;SDS011;52402;52.670;6.750;2023-08-31T01:54:20;1.40;;;1.30;;
60292;SDS011;52402;52.670;6.750;2023-08-31T01:56:45;1.30;;;1.20;;
60292;SDS011;52402;52.670;6.750;2023-08-31T01:59:11;1.40;;;1.30;;
60292;SDS011;52402;52.670;6.750;2023-08-31T02:01:37;1.42;;;1.33;;
60292;SDS011;52402;52.670;6.750;2023-08-31T02:04:03;1.17;;;1.17;;
60292;SDS011;52402;52.670;6.750;2023-08-31T02:06:30;1.20;;;1.20;;
60292;SDS011;52402;52.670;6.750;2023-08-31T02:08:56;1.30;;;1.20;;
60292;SDS011;52402;52.670;6.750;2023-08-31T02:11:21;1.67;;;1.58;;
60292;SDS011;52402;52.670;6.750;2023-08-31T02:13:47;1.40;;;1.30;;
60292;SDS011;52402;52.670;6.750;2023-08-31T02:16:13;1.10;;;1.10;;
60292;SDS011;52402;52.670;6.750;2023-08-31T02:18:39;1.10;;;1.10;;
60292;SDS011;52402;52.670;6.750;2023-08-31T02:21:05;1.23;;;1.20;;
60292;SDS011;52402;52.670;6.750;2023-08-31T02:23:32;1.40;;;1.30;;
60292;SDS011;52402;52.670;6.750;2023-08-31T02:25:58;1.40;;;1.30;;
60292;SDS011;52402;52.670;6.750;2023-08-31T02:28:24;1.42;;;1.33;;
60292;SDS011;52402;52.670;6.750;2023-08-31T02:30:57;1.20;;;1.20;;
60292;SDS011;52402;52.670;6.750;2023-08-31T02:33:24;1.10;;;1.10;;
60292;SDS011;52402;52.670;6.750;2023-08-31T02:35:50;1.25;;;1.20;;
60292;SDS011;52402;52.670;6.750;2023-08-31T02:38:16;1.35;;;1.25;;
60292;SDS011;52402;52.670;6.750;2023-08-31T02:40:42;1.08;;;1.08;;
60292;SDS011;52402;52.670;6.750;2023-08-31T02:43:11;1.45;;;1.35;;
60292;SDS011;52402;52.670;6.750;2023-08-31T02:45:36;1.20;;;1.20;;
60292;SDS011;52402;52.670;6.750;2023-08-31T02:48:02;1.10;;;1.10;;
60292;SDS011;52402;52.670;6.750;2023-08-31T02:50:28;1.02;;;1.02;;
60292;SDS011;52402;52.670;6.750;2023-08-31T02:52:54;1.25;;;1.20;;
60292;SDS011;52402;52.670;6.750;2023-08-31T02:55:20;1.23;;;1.20;;
60292;SDS011;52402;52.670;6.750;2023-08-31T02:57:46;1.20;;;1.20;;
60292;SDS011;52402;52.670;6.750;2023-08-31T03:00:12;1.10;;;1.10;;
60292;SDS011;52402;52.670;6.750;2023-08-31T03:02:38;1.13;;;1.13;;
60292;SDS011;52402;52.670;6.750;2023-08-31T03:05:04;1.13;;;1.13;;
60292;SDS011;52402;52.670;6.750;2023-08-31T03:07:30;1.00;;;1.00;;
60292;SDS011;52402;52.670;6.750;2023-08-31T03:09:59;1.00;;;1.00;;
60292;SDS011;52402;52.670;6.750;2023-08-31T03:12:25;1.00;;;1.00;;
60292;SDS011;52402;52.670;6.750;2023-08-31T03:14:51;1.08;;;1.08;;
60292;SDS011;52402;52.670;6.750;2023-08-31T03:17:17;1.10;;;1.10;;
60292;SDS011;52402;52.670;6.750;2023-08-31T03:19:42;1.00;;;1.00;;
60292;SDS011;52402;52.670;6.750;2023-08-31T03:22:08;1.10;;;1.10;;
60292;SDS011;52402;52.670;6.750;2023-08-31T03:24:34;1.00;;;1.00;;
60292;SDS011;52402;52.670;6.750;2023-08-31T03:27:00;0.93;;;0.93;;
60292;SDS011;52402;52.670;6.750;2023-08-31T03:29:26;1.08;;;1.08;;
60292;SDS011;52402;52.670;6.750;2023-08-31T03:31:54;1.00;;;1.00;;
60292;SDS011;52402;52.670;6.750;2023-08-31T03:34:20;1.10;;;1.10;;
60292;SDS011;52402;52.670;6.750;2023-08-31T03:36:46;1.00;;;1.00;;
60292;SDS011;52402;52.670;6.750;2023-08-31T03:39:12;1.00;;;1.00;;
60292;SDS011;52402;52.670;6.750;2023-08-31T03:41:37;1.08;;;1.08;;
60292;SDS011;52402;52.670;6.750;2023-08-31T03:44:03;1.05;;;1.05;;
60292;SDS011;52402;52.670;6.750;2023-08-31T03:46:29;1.00;;;1.00;;
60292;SDS011;52402;52.670;6.750;2023-08-31T03:48:55;0.98;;;0.98;;
60292;SDS011;52402;52.670;6.750;2023-08-31T03:51:21;1.05;;;1.05;;
60292;SDS011;52402;52.670;6.750;2023-08-31T03:53:47;0.93;;;0.93;;
60292;SDS011;52402;52.670;6.750;2023-08-31T03:56:13;1.10;;;1.10;;
60292;SDS011;52402;52.670;6.750;2023-08-31T03:58:38;1.10;;;1.10;;
60292;SDS011;52402;52.670;6.750;2023-08-31T04:01:04;0.90;;;0.90;;
60292;SDS011;52402;52.670;6.750;2023-08-31T04:03:30;1.08;;;1.08;;
60292;SDS011;52402;52.670;6.750;2023-08-31T04:05:56;1.00;;;1.00;;
60292;SDS011;52402;52.670;6.750;2023-08-31T04:08:22;1.00;;;1.00;;
60292;SDS011;52402;52.670;6.750;2023-08-31T04:10:48;1.17;;;1.17;;
60292;SDS011;52402;52.670;6.750;2023-08-31T04:13:13;1.13;;;1.13;;
60292;SDS011;52402;52.670;6.750;2023-08-31T04:15:39;1.35;;;1.25;;
60292;SDS011;52402;52.670;6.750;2023-08-31T04:18:05;1.10;;;1.10;;
60292;SDS011;52402;52.670;6.750;2023-08-31T04:20:32;1.10;;;1.10;;
60292;SDS011;52402;52.670;6.750;2023-08-31T04:22:58;1.27;;;1.23;;
60292;SDS011;52402;52.670;6.750;2023-08-31T04:25:24;1.10;;;1.10;;
60292;SDS011;52402;52.670;6.750;2023-08-31T04:27:50;1.10;;;1.10;;
60292;SDS011;52402;52.670;6.750;2023-08-31T04:30:15;1.40;;;1.30;;
60292;SDS011;52402;52.670;6.750;2023-08-31T04:32:41;1.40;;;1.30;;
60292;SDS011;52402;52.670;6.750;2023-08-31T04:35:08;1.15;;;1.15;;
60292;SDS011;52402;52.670;6.750;2023-08-31T04:37:34;1.40;;;1.30;;
60292;SDS011;52402;52.670;6.750;2023-08-31T04:40:00;1.02;;;1.02;;
60292;SDS011;52402;52.670;6.750;2023-08-31T04:42:25;1.08;;;1.08;;
60292;SDS011;52402;52.670;6.750;2023-08-31T04:44:51;1.02;;;1.02;;
60292;SDS011;52402;52.670;6.750;2023-08-31T04:47:17;1.00;;;1.00;;
60292;SDS011;52402;52.670;6.750;2023-08-31T04:49:43;1.08;;;1.08;;
60292;SDS011;52402;52.670;6.750;2023-08-31T04:52:09;1.00;;;1.00;;
60292;SDS011;52402;52.670;6.750;2023-08-31T04:54:35;1.02;;;1.02;;
60292;SDS011;52402;52.670;6.750;2023-08-31T04:57:00;1.20;;;1.20;;
60292;SDS011;52402;52.670;6.750;2023-08-31T04:59:28;1.40;;;1.30;;
60292;SDS011;52402;52.670;6.750;2023-08-31T05:01:54;1.20;;;1.20;;
60292;SDS011;52402;52.670;6.750;2023-08-31T05:04:20;1.10;;;1.10;;
60292;SDS011;52402;52.670;6.750;2023-08-31T05:06:46;0.90;;;0.90;;
60292;SDS011;52402;52.670;6.750;2023-08-31T05:09:11;0.98;;;0.98;;
60292;SDS011;52402;52.670;6.750;2023-08-31T05:11:37;1.08;;;1.08;;
60292;SDS011;52402;52.670;6.750;2023-08-31T05:14:03;0.98;;;0.98;;
60292;SDS011;52402;52.670;6.750;2023-08-31T05:16:29;1.10;;;1.10;;
60292;SDS011;52402;52.670;6.750;2023-08-31T05:18:55;1.25;;;1.20;;
60292;SDS011;52402;52.670;6.750;2023-08-31T05:21:23;1.17;;;1.17;;
60292;SDS011;52402;52.670;6.750;2023-08-31T05:23:49;1.20;;;1.20;;
60292;SDS011;52402;52.670;6.750;2023-08-31T05:26:14;1.25;;;1.23;;
60292;SDS011;52402;52.670;6.750;2023-08-31T05:28:40;1.10;;;1.10;;
60292;SDS011;52402;52.670;6.750;2023-08-31T05:31:06;1.42;;;1.33;;
60292;SDS011;52402;52.670;6.750;2023-08-31T05:33:32;1.35;;;1.25;;
60292;SDS011;52402;52.670;6.750;2023-08-31T05:36:00;1.05;;;1.05;;
60292;SDS011;52402;52.670;6.750;2023-08-31T05:38:28;1.08;;;1.08;;
60292;SDS011;52402;52.670;6.750;2023-08-31T05:41:02;1.27;;;1.20;;
60292;SDS011;52402;52.670;6.750;2023-08-31T05:43:32;1.10;;;1.10;;
60292;SDS011;52402;52.670;6.750;2023-08-31T05:45:58;1.08;;;1.08;;
60292;SDS011;52402;52.670;6.750;2023-08-31T05:48:24;1.10;;;1.10;;
60292;SDS011;52402;52.670;6.750;2023-08-31T05:50:50;1.05;;;1.05;;
60292;SDS011;52402;52.670;6.750;2023-08-31T05:53:15;1.10;;;1.10;;
60292;SDS011;52402;52.670;6.750;2023-08-31T05:55:41;1.10;;;1.10;;
60292;SDS011;52402;52.670;6.750;2023-08-31T05:58:10;1.10;;;1.10;;
60292;SDS011;52402;52.670;6.750;2023-08-31T06:01:01;1.13;;;1.13;;
60292;SDS011;52402;52.670;6.750;2023-08-31T06:10:37;0.95;;;0.95;;
60292;SDS011;52402;52.670;6.750;2023-08-31T06:13:04;0.90;;;0.90;;
60292;SDS011;52402;52.670;6.750;2023-08-31T06:15:31;1.10;;;1.10;;
60292;SDS011;52402;52.670;6.750;2023-08-31T06:17:57;1.50;;;1.40;;
60292;SDS011;52402;52.670;6.750;2023-08-31T06:20:22;1.20;;;1.20;;
60292;SDS011;52402;52.670;6.750;2023-08-31T06:22:48;1.00;;;1.00;;
60292;SDS011;52402;52.670;6.750;2023-08-31T06:25:14;1.17;;;1.17;;
60292;SDS011;52402;52.670;6.750;2023-08-31T06:27:43;1.40;;;1.30;;
60292;SDS011;52402;52.670;6.750;2023-08-31T06:30:10;1.35;;;1.27;;
60292;SDS011;52402;52.670;6.750;2023-08-31T06:32:44;1.38;;;1.27;;
60292;SDS011;52402;52.670;6.750;2023-08-31T06:35:12;1.58;;;1.48;;
60292;SDS011;52402;52.670;6.750;2023-08-31T06:37:39;1.20;;;1.20;;
60292;SDS011;52402;52.670;6.750;2023-08-31T06:40:08;1.27;;;1.20;;
60292;SDS011;52402;52.670;6.750;2023-08-31T06:42:35;1.10;;;1.10;;
60292;SDS011;52402;52.670;6.750;2023-08-31T06:45:02;1.23;;;1.20;;
60292;SDS011;52402;52.670;6.750;2023-08-31T06:47:30;1.10;;;1.10;;
60292;SDS011;52402;52.670;6.750;2023-08-31T06:49:56;1.10;;;1.10;;
60292;SDS011;52402;52.670;6.750;2023-08-31T06:52:25;1.10;;;1.10;;
60292;SDS011;52402;52.670;6.750;2023-08-31T06:54:52;1.50;;;1.40;;
60292;SDS011;52402;52.670;6.750;2023-08-31T06:57:23;1.10;;;1.10;;
60292;SDS011;52402;52.670;6.750;2023-08-31T06:59:49;1.25;;;1.20;;
60292;SDS011;52402;52.670;6.750;2023-08-31T07:02:15;1.13;;;1.13;;
60292;SDS011;52402;52.670;6.750;2023-08-31T07:04:41;1.50;;;1.40;;
60292;SDS011;52402;52.670;6.750;2023-08-31T07:07:08;1.70;;;1.60;;
60292;SDS011;52402;52.670;6.750;2023-08-31T07:09:34;1.88;;;1.77;;
60292;SDS011;52402;52.670;6.750;2023-08-31T07:12:01;1.50;;;1.40;;
60292;SDS011;52402;52.670;6.750;2023-08-31T07:14:27;1.88;;;1.77;;
60292;SDS011;52402;52.670;6.750;2023-08-31T07:16:55;1.40;;;1.30;;
60292;SDS011;52402;52.670;6.750;2023-08-31T07:19:21;1.60;;;1.50;;
60292;SDS011;52402;52.670;6.750;2023-08-31T07:21:49;1.50;;;1.40;;
60292;SDS011;52402;52.670;6.750;2023-08-31T07:24:15;1.20;;;1.20;;
60292;SDS011;52402;52.670;6.750;2023-08-31T07:26:41;1.70;;;1.60;;
60292;SDS011;52402;52.670;6.750;2023-08-31T07:29:06;1.80;;;1.70;;
60292;SDS011;52402;52.670;6.750;2023-08-31T07:31:32;1.50;;;1.40;;
60292;SDS011;52402;52.670;6.750;2023-08-31T07:33:58;1.58;;;1.48;;
60292;SDS011;52402;52.670;6.750;2023-08-31T07:36:24;1.58;;;1.48;;
60292;SDS011;52402;52.670;6.750;2023-08-31T07:38:53;1.80;;;1.70;;
60292;SDS011;52402;52.670;6.750;2023-08-31T07:41:19;1.80;;;1.70;;
60292;SDS011;52402;52.670;6.750;2023-08-31T07:43:45;1.92;;;1.83;;
60292;SDS011;52402;52.670;6.750;2023-08-31T07:46:11;1.52;;;1.42;;
60292;SDS011;52402;52.670;6.750;2023-08-31T07:48:37;1.83;;;1.73;;
60292;SDS011;52402;52.670;6.750;2023-08-31T07:51:04;1.70;;;1.60;;
60292;SDS011;52402;52.670;6.750;2023-08-31T07:53:30;1.50;;;1.40;;
60292;SDS011;52402;52.670;6.750;2023-08-31T07:55:55;1.52;;;1.42;;
60292;SDS011;52402;52.670;6.750;2023-08-31T07:58:22;1.60;;;1.50;;
60292;SDS011;52402;52.670;6.750;2023-08-31T08:00:48;1.20;;;1.20;;
60292;SDS011;52402;52.670;6.750;2023-08-31T08:03:21;1.80;;;1.70;;
60292;SDS011;52402;52.670;6.750;2023-08-31T08:05:50;1.50;;;1.40;;
60292;SDS011;52402;52.670;6.750;2023-08-31T08:08:17;1.70;;;1.60;;
60292;SDS011;52402;52.670;6.750;2023-08-31T08:10:43;1.10;;;1.10;;
60292;SDS011;52402;52.670;6.750;2023-08-31T08:13:09;1.52;;;1.42;;
60292;SDS011;52402;52.670;6.750;2023-08-31T08:15:35;1.20;;;1.20;;
60292;SDS011;52402;52.670;6.750;2023-08-31T08:18:01;1.38;;;1.27;;
60292;SDS011;52402;52.670;6.750;2023-08-31T08:20:27;1.40;;;1.30;;
60292;SDS011;52402;52.670;6.750;2023-08-31T08:22:56;1.27;;;1.23;;
60292;SDS011;52402;52.670;6.750;2023-08-31T08:25:23;1.40;;;1.30;;
60292;SDS011;52402;52.670;6.750;2023-08-31T08:27:49;1.40;;;1.30;;
60292;SDS011;52402;52.670;6.750;2023-08-31T08:30:15;1.50;;;1.40;;
60292;SDS011;52402;52.670;6.750;2023-08-31T08:32:41;1.50;;;1.40;;
60292;SDS011;52402;52.670;6.750;2023-08-31T08:35:08;1.52;;;1.42;;
60292;SDS011;52402;52.670;6.750;2023-08-31T08:37:34;1.45;;;1.35;;
60292;SDS011;52402;52.670;6.750;2023-08-31T08:40:00;1.35;;;1.25;;
60292;SDS011;52402;52.670;6.750;2023-08-31T08:42:29;1.48;;;1.38;;
60292;SDS011;52402;52.670;6.750;2023-08-31T08:44:58;1.40;;;1.30;;
60292;SDS011;52402;52.670;6.750;2023-08-31T08:47:27;1.50;;;1.40;;
60292;SDS011;52402;52.670;6.750;2023-08-31T08:49:53;1.73;;;1.63;;
60292;SDS011;52402;52.670;6.750;2023-08-31T08:52:21;1.60;;;1.50;;
60292;SDS011;52402;52.670;6.750;2023-08-31T08:54:48;1.42;;;1.33;;
60292;SDS011;52402;52.670;6.750;2023-08-31T08:57:15;1.50;;;1.40;;
60292;SDS011;52402;52.670;6.750;2023-08-31T08:59:41;1.48;;;1.38;;
60292;SDS011;52402;52.670;6.750;2023-08-31T09:02:08;1.90;;;1.80;;
60292;SDS011;52402;52.670;6.750;2023-08-31T09:04:35;1.70;;;1.60;;
60292;SDS011;52402;52.670;6.750;2023-08-31T09:07:01;1.88;;;1.77;;
60292;SDS011;52402;52.670;6.750;2023-08-31T09:09:27;1.58;;;1.48;;
60292;SDS011;52402;52.670;6.750;2023-08-31T09:11:53;1.60;;;1.50;;
60292;SDS011;52402;52.670;6.750;2023-08-31T09:14:21;1.80;;;1.70;;
60292;SDS011;52402;52.670;6.750;2023-08-31T09:16:47;2.22;;;2.13;;
60292;SDS011;52402;52.670;6.750;2023-08-31T09:19:18;2.13;;;2.03;;
60292;SDS011;52402;52.670;6.750;2023-08-31T09:21:46;2.17;;;2.08;;
60292;SDS011;52402;52.670;6.750;2023-08-31T09:24:15;2.35;;;2.22;;
60292;SDS011;52402;52.670;6.750;2023-08-31T09:26:48;2.67;;;2.47;;
60292;SDS011;52402;52.670;6.750;2023-08-31T09:29:18;2.47;;;2.30;;
60292;SDS011;52402;52.670;6.750;2023-08-31T09:31:45;2.50;;;2.30;;
60292;SDS011;52402;52.670;6.750;2023-08-31T09:34:12;2.65;;;2.45;;
60292;SDS011;52402;52.670;6.750;2023-08-31T09:36:39;2.88;;;2.67;;
60292;SDS011;52402;52.670;6.750;2023-08-31T09:39:05;2.53;;;2.33;;
60292;SDS011;52402;52.670;6.750;2023-08-31T09:41:32;2.70;;;2.50;;
60292;SDS011;52402;52.670;6.750;2023-08-31T09:44:22;2.45;;;2.33;;
60292;SDS011;52402;52.670;6.750;2023-08-31T09:46:50;2.15;;;2.05;;
60292;SDS011;52402;52.670;6.750;2023-08-31T09:49:18;2.83;;;2.63;;
60292;SDS011;52402;52.670;6.750;2023-08-31T09:51:48;2.35;;;2.25;;
60292;SDS011;52402;52.670;6.750;2023-08-31T09:54:15;3.13;;;2.92;;
60292;SDS011;52402;52.670;6.750;2023-08-31T09:56:43;3.17;;;2.97;;
60292;SDS011;52402;52.670;6.750;2023-08-31T09:59:12;2.92;;;2.72;;
60292;SDS011;52402;52.670;6.750;2023-08-31T10:01:39;2.83;;;2.63;;
60292;SDS011;52402;52.670;6.750;2023-08-31T10:04:06;3.00;;;2.80;;
60292;SDS011;52402;52.670;6.750;2023-08-31T10:06:43;3.95;;;3.65;;
60292;SDS011;52402;52.670;6.750;2023-08-31T10:09:09;3.58;;;3.38;;
60292;SDS011;52402;52.670;6.750;2023-08-31T10:11:37;2.88;;;2.67;;
60292;SDS011;52402;52.670;6.750;2023-08-31T10:14:04;3.03;;;2.83;;
60292;SDS011;52402;52.670;6.750;2023-08-31T10:16:30;3.38;;;3.17;;
60292;SDS011;52402;52.670;6.750;2023-08-31T10:18:57;3.30;;;3.10;;
60292;SDS011;52402;52.670;6.750;2023-08-31T10:21:23;3.92;;;3.63;;
60292;SDS011;52402;52.670;6.750;2023-08-31T10:23:50;4.15;;;3.85;;
60292;SDS011;52402;52.670;6.750;2023-08-31T10:26:28;3.50;;;3.30;;
60292;SDS011;52402;52.670;6.750;2023-08-31T10:28:58;3.55;;;3.35;;
60292;SDS011;52402;52.670;6.750;2023-08-31T10:31:37;3.58;;;3.38;;
60292;SDS011;52402;52.670;6.750;2023-08-31T10:34:04;3.30;;;3.10;;
60292;SDS011;52402;52.670;6.750;2023-08-31T10:36:43;3.00;;;2.80;;
60292;SDS011;52402;52.670;6.750;2023-08-31T10:39:16;3.28;;;3.08;;
60292;SDS011;52402;52.670;6.750;2023-08-31T10:41:56;3.20;;;3.00;;
60292;SDS011;52402;52.670;6.750;2023-08-31T10:44:31;3.40;;;3.20;;
60292;SDS011;52402;52.670;6.750;2023-08-31T10:46:59;3.30;;;3.10;;
60292;SDS011;52402;52.670;6.750;2023-08-31T10:49:28;3.85;;;3.55;;
60292;SDS011;52402;52.670;6.750;2023-08-31T10:54:39;4.00;;;3.70;;
60292;SDS011;52402;52.670;6.750;2023-08-31T10:57:05;4.00;;;3.70;;
60292;SDS011;52402;52.670;6.750;2023-08-31T10:59:41;4.00;;;3.70;;
60292;SDS011;52402;52.670;6.750;2023-08-31T11:02:13;3.65;;;3.42;;
60292;SDS011;52402;52.670;6.750;2023-08-31T11:08:31;4.03;;;3.72;;
60292;SDS011;52402;52.670;6.750;2023-08-31T11:11:01;3.35;;;3.15;;
60292;SDS011;52402;52.670;6.750;2023-08-31T11:13:28;3.28;;;3.08;;
60292;SDS011;52402;52.670;6.750;2023-08-31T11:15:53;3.80;;;3.50;;
60292;SDS011;52402;52.670;6.750;2023-08-31T11:18:21;3.35;;;3.15;;
60292;SDS011;52402;52.670;6.750;2023-08-31T11:20:46;3.42;;;3.22;;
60292;SDS011;52402;52.670;6.750;2023-08-31T11:23:13;3.90;;;3.60;;
60292;SDS011;52402;52.670;6.750;2023-08-31T11:25:40;3.65;;;3.42;;
60292;SDS011;52402;52.670;6.750;2023-08-31T11:28:06;3.30;;;3.10;;
60292;SDS011;52402;52.670;6.750;2023-08-31T11:30:32;3.63;;;3.40;;
60292;SDS011;52402;52.670;6.750;2023-08-31T11:33:03;3.30;;;3.10;;
60292;SDS011;52402;52.670;6.750;2023-08-31T11:35:37;4.20;;;3.90;;
60292;SDS011;52402;52.670;6.750;2023-08-31T11:38:06;3.40;;;3.20;;
60292;SDS011;52402;52.670;6.750;2023-08-31T11:40:32;3.55;;;3.35;;
60292;SDS011;52402;52.670;6.750;2023-08-31T11:42:58;3.53;;;3.33;;
60292;SDS011;52402;52.670;6.750;2023-08-31T11:47:54;4.30;;;4.00;;
60292;SDS011;52402;52.670;6.750;2023-08-31T11:50:20;4.63;;;4.32;;
60292;SDS011;52402;52.670;6.750;2023-08-31T11:52:48;4.35;;;4.05;;
60292;SDS011;52402;52.670;6.750;2023-08-31T11:55:16;4.20;;;3.90;;
60292;SDS011;52402;52.670;6.750;2023-08-31T12:00:19;4.78;;;4.47;;
60292;SDS011;52402;52.670;6.750;2023-08-31T12:02:58;3.50;;;3.30;;
60292;SDS011;52402;52.670;6.750;2023-08-31T12:05:25;3.30;;;3.10;;
60292;SDS011;52402;52.670;6.750;2023-08-31T12:07:53;3.55;;;3.35;;
60292;SDS011;52402;52.670;6.750;2023-08-31T12:10:20;3.85;;;3.55;;
60292;SDS011;52402;52.670;6.750;2023-08-31T12:12:45;3.20;;;3.00;;
60292;SDS011;52402;52.670;6.750;2023-08-31T12:15:12;3.10;;;2.90;;
60292;SDS011;52402;52.670;6.750;2023-08-31T12:17:38;2.72;;;2.53;;
60292;SDS011;52402;52.670;6.750;2023-08-31T12:20:05;3.13;;;2.92;;
60292;SDS011;52402;52.670;6.750;2023-08-31T12:22:32;3.20;;;3.00;;
60292;SDS011;52402;52.670;6.750;2023-08-31T12:24:58;3.45;;;3.25;;
60292;SDS011;52402;52.670;6.750;2023-08-31T12:27:23;2.88;;;2.67;;
60292;SDS011;52402;52.670;6.750;2023-08-31T12:29:49;2.60;;;2.40;;
60292;SDS011;52402;52.670;6.750;2023-08-31T12:32:15;2.70;;;2.50;;
60292;SDS011;52402;52.670;6.750;2023-08-31T12:34:43;2.90;;;2.70;;
60292;SDS011;52402;52.670;6.750;2023-08-31T12:37:09;3.05;;;2.85;;
60292;SDS011;52402;52.670;6.750;2023-08-31T12:39:34;2.90;;;2.70;;
60292;SDS011;52402;52.670;6.750;2023-08-31T12:42:00;2.88;;;2.67;;
60292;SDS011;52402;52.670;6.750;2023-08-31T12:44:26;3.08;;;2.88;;
60292;SDS011;52402;52.670;6.750;2023-08-31T12:46:51;3.17;;;2.97;;
60292;SDS011;52402;52.670;6.750;2023-08-31T12:49:17;3.05;;;2.85;;
60292;SDS011;52402;52.670;6.750;2023-08-31T12:51:45;3.25;;;3.05;;
60292;SDS011;52402;52.670;6.750;2023-08-31T12:54:11;2.75;;;2.55;;
60292;SDS011;52402;52.670;6.750;2023-08-31T12:56:37;2.80;;;2.60;;
60292;SDS011;52402;52.670;6.750;2023-08-31T12:59:03;3.35;;;3.15;;
60292;SDS011;52402;52.670;6.750;2023-08-31T13:01:30;3.00;;;2.80;;
60292;SDS011;52402;52.670;6.750;2023-08-31T13:03:58;2.80;;;2.60;;
60292;SDS011;52402;52.670;6.750;2023-08-31T13:06:24;3.03;;;2.83;;
60292;SDS011;52402;52.670;6.750;2023-08-31T13:08:50;2.90;;;2.70;;
60292;SDS011;52402;52.670;6.750;2023-08-31T13:11:16;2.97;;;2.78;;
60292;SDS011;52402;52.670;6.750;2023-08-31T13:13:44;3.10;;;2.90;;
60292;SDS011;52402;52.670;6.750;2023-08-31T13:16:09;3.30;;;3.10;;
60292;SDS011;52402;52.670;6.750;2023-08-31T13:18:35;2.95;;;2.75;;
60292;SDS011;52402;52.670;6.750;2023-08-31T13:21:01;4.35;;;4.05;;
60292;SDS011;52402;52.670;6.750;2023-08-31T13:23:27;3.53;;;3.33;;
60292;SDS011;52402;52.670;6.750;2023-08-31T13:25:53;4.30;;;4.00;;
60292;SDS011;52402;52.670;6.750;2023-08-31T13:28:21;4.20;;;3.90;;
60292;SDS011;52402;52.670;6.750;2023-08-31T13:30:47;4.40;;;4.10;;
60292;SDS011;52402;52.670;6.750;2023-08-31T13:33:12;5.65;;;5.25;;
60292;SDS011;52402;52.670;6.750;2023-08-31T13:35:38;6.15;;;5.75;;
60292;SDS011;52402;52.670;6.750;2023-08-31T13:38:04;6.72;;;6.32;;
60292;SDS011;52402;52.670;6.750;2023-08-31T13:40:29;6.55;;;6.15;;
60292;SDS011;52402;52.670;6.750;2023-08-31T13:42:56;8.50;;;8.00;;
60292;SDS011;52402;52.670;6.750;2023-08-31T13:45:26;5.97;;;5.57;;
60292;SDS011;52402;52.670;6.750;2023-08-31T13:47:52;8.15;;;7.65;;
60292;SDS011;52402;52.670;6.750;2023-08-31T13:50:18;8.32;;;7.82;;
60292;SDS011;52402;52.670;6.750;2023-08-31T13:52:44;7.53;;;7.05;;
60292;SDS011;52402;52.670;6.750;2023-08-31T13:55:10;7.72;;;7.22;;
60292;SDS011;52402;52.670;6.750;2023-08-31T13:57:35;8.45;;;7.95;;
60292;SDS011;52402;52.670;6.750;2023-08-31T14:00:01;8.02;;;7.53;;
60292;SDS011;52402;52.670;6.750;2023-08-31T14:02:29;8.20;;;7.70;;
60292;SDS011;52402;52.670;6.750;2023-08-31T14:04:55;9.48;;;8.98;;
60292;SDS011;52402;52.670;6.750;2023-08-31T14:07:22;9.40;;;8.90;;
60292;SDS011;52402;52.670;6.750;2023-08-31T14:09:47;8.60;;;8.10;;
60292;SDS011;52402;52.670;6.750;2023-08-31T14:12:13;7.80;;;7.30;;
60292;SDS011;52402;52.670;6.750;2023-08-31T14:14:39;9.35;;;8.85;;
60292;SDS011;52402;52.670;6.750;2023-08-31T14:17:06;8.85;;;8.35;;
60292;SDS011;52402;52.670;6.750;2023-08-31T14:19:32;9.27;;;8.77;;
60292;SDS011;52402;52.670;6.750;2023-08-31T14:22:00;8.60;;;8.10;;
60292;SDS011;52402;52.670;6.750;2023-08-31T14:24:28;8.05;;;7.55;;
60292;SDS011;52402;52.670;6.750;2023-08-31T14:26:54;9.10;;;8.60;;
60292;SDS011;52402;52.670;6.750;2023-08-31T14:29:20;10.20;;;9.60;;
60292;SDS011;52402;52.670;6.750;2023-08-31T14:31:45;9.60;;;9.10;;
60292;SDS011;52402;52.670;6.750;2023-08-31T14:34:11;10.57;;;9.98;;
60292;SDS011;52402;52.670;6.750;2023-08-31T14:39:06;12.35;;;11.75;;
60292;SDS011;52402;52.670;6.750;2023-08-31T14:41:31;11.95;;;11.35;;
60292;SDS011;52402;52.670;6.750;2023-08-31T14:43:57;12.38;;;11.77;;
60292;SDS011;52402;52.670;6.750;2023-08-31T14:46:23;10.90;;;10.30;;
60292;SDS011;52402;52.670;6.750;2023-08-31T14:48:49;12.90;;;12.23;;
60292;SDS011;52402;52.670;6.750;2023-08-31T14:51:15;12.80;;;12.10;;
60292;SDS011;52402;52.670;6.750;2023-08-31T14:53:41;13.00;;;12.30;;
60292;SDS011;52402;52.670;6.750;2023-08-31T14:56:07;14.70;;;14.00;;
60292;SDS011;52402;52.670;6.750;2023-08-31T14:58:33;16.02;;;15.23;;
60292;SDS011;52402;52.670;6.750;2023-08-31T15:00:59;16.10;;;15.30;;
60292;SDS011;52402;52.670;6.750;2023-08-31T15:03:25;15.20;;;14.50;;
60292;SDS011;52402;52.670;6.750;2023-08-31T15:05:51;15.50;;;14.70;;
60292;SDS011;52402;52.670;6.750;2023-08-31T15:08:17;16.38;;;15.57;;
60292;SDS011;52402;52.670;6.750;2023-08-31T15:10:42;16.70;;;15.90;;
60292;SDS011;52402;52.670;6.750;2023-08-31T15:13:08;16.60;;;15.80;;
60292;SDS011;52402;52.670;6.750;2023-08-31T15:15:34;17.52;;;16.73;;